sensor_id;sensor_type;location;lat;lon;timestamp;P1;durP1;ratioP1;P2;durP2;ratioP2
21297;SDS011;10808;48.010;11.326;2023-09-07T00:01:31;7.07;;;5.00;;
21297;SDS011;10808;48.010;11.326;2023-09-07T00:03:57;7.15;;;5.20;;
21297;SDS011;10808;48.010;11.326;2023-09-07T00:06:23;6.07;;;5.30;;
21297;SDS011;10808;48.010;11.326;2023-09-07T00:08:51;5.80;;;4.88;;
21297;SDS011;10808;48.010;11.326;2023-09-07T00:11:17;6.60;;;5.07;;
21297;SDS011;10808;48.010;11.326;2023-09-07T00:13:43;7.22;;;5.00;;
21297;SDS011;10808;48.010;11.326;2023-09-07T00:16:09;5.80;;;5.20;;
21297;SDS011;10808;48.010;11.326;2023-09-07T00:18:36;5.93;;;5.30;;
21297;SDS011;10808;48.010;11.326;2023-09-07T00:21:02;8.77;;;5.40;;
21297;SDS011;10808;48.010;11.326;2023-09-07T00:23:29;6.28;;;5.63;;
21297;SDS011;10808;48.010;11.326;2023-09-07T00:25:55;7.18;;;5.60;;
21297;SDS011;10808;48.010;11.326;2023-09-07T00:28:22;6.68;;;5.60;;
21297;SDS011;10808;48.010;11.326;2023-09-07T00:30:48;7.53;;;5.60;;
21297;SDS011;10808;48.010;11.326;2023-09-07T00:33:15;8.40;;;5.30;;
21297;SDS011;10808;48.010;11.326;2023-09-07T00:35:41;6.78;;;5.20;;
21297;SDS011;10808;48.010;11.326;2023-09-07T00:38:07;6.40;;;5.70;;
21297;SDS011;10808;48.010;11.326;2023-09-07T00:40:33;6.30;;;5.70;;
21297;SDS011;10808;48.010;11.326;2023-09-07T00:43:00;8.18;;;5.97;;
21297;SDS011;10808;48.010;11.326;2023-09-07T00:45:26;8.63;;;5.40;;
21297;SDS011;10808;48.010;11.326;2023-09-07T00:47:52;7.90;;;5.90;;
21297;SDS011;10808;48.010;11.326;2023-09-07T00:50:19;7.15;;;5.47;;
21297;SDS011;10808;48.010;11.326;2023-09-07T00:52:45;8.80;;;5.80;;
21297;SDS011;10808;48.010;11.326;2023-09-07T00:55:12;7.32;;;5.43;;
21297;SDS011;10808;48.010;11.326;2023-09-07T00:57:39;6.60;;;5.70;;
21297;SDS011;10808;48.010;11.326;2023-09-07T01:00:08;9.97;;;5.40;;
21297;SDS011;10808;48.010;11.326;2023-09-07T01:02:34;5.70;;;5.20;;
21297;SDS011;10808;48.010;11.326;2023-09-07T01:05:01;5.83;;;5.23;;
21297;SDS011;10808;48.010;11.326;2023-09-07T01:07:32;7.07;;;5.93;;
21297;SDS011;10808;48.010;11.326;2023-09-07T01:10:03;6.13;;;5.40;;
21297;SDS011;10808;48.010;11.326;2023-09-07T01:12:30;7.18;;;5.68;;
21297;SDS011;10808;48.010;11.326;2023-09-07T01:14:56;7.13;;;5.22;;
21297;SDS011;10808;48.010;11.326;2023-09-07T01:17:24;6.85;;;5.63;;
21297;SDS011;10808;48.010;11.326;2023-09-07T01:19:51;5.93;;;5.32;;
21297;SDS011;10808;48.010;11.326;2023-09-07T01:22:18;6.50;;;5.80;;
21297;SDS011;10808;48.010;11.326;2023-09-07T01:24:48;6.22;;;5.50;;
21297;SDS011;10808;48.010;11.326;2023-09-07T01:27:15;7.30;;;6.00;;
21297;SDS011;10808;48.010;11.326;2023-09-07T01:29:42;7.13;;;5.53;;
21297;SDS011;10808;48.010;11.326;2023-09-07T01:32:08;8.35;;;5.93;;
21297;SDS011;10808;48.010;11.326;2023-09-07T01:34:35;6.78;;;5.45;;
21297;SDS011;10808;48.010;11.326;2023-09-07T01:37:02;8.40;;;5.88;;
21297;SDS011;10808;48.010;11.326;2023-09-07T01:39:28;7.78;;;6.03;;
21297;SDS011;10808;48.010;11.326;2023-09-07T01:41:54;7.85;;;6.00;;
21297;SDS011;10808;48.010;11.326;2023-09-07T01:44:20;8.48;;;5.55;;
21297;SDS011;10808;48.010;11.326;2023-09-07T01:46:46;6.90;;;5.80;;
21297;SDS011;10808;48.010;11.326;2023-09-07T01:49:12;7.22;;;5.68;;
21297;SDS011;10808;48.010;11.326;2023-09-07T01:51:38;6.30;;;5.70;;
21297;SDS011;10808;48.010;11.326;2023-09-07T01:54:04;7.57;;;5.78;;
21297;SDS011;10808;48.010;11.326;2023-09-07T01:56:31;7.28;;;5.75;;
21297;SDS011;10808;48.010;11.326;2023-09-07T01:58:57;6.43;;;5.70;;
21297;SDS011;10808;48.010;11.326;2023-09-07T02:01:23;6.45;;;5.78;;
21297;SDS011;10808;48.010;11.326;2023-09-07T02:03:50;9.13;;;5.60;;
21297;SDS011;10808;48.010;11.326;2023-09-07T02:06:17;8.40;;;5.90;;
21297;SDS011;10808;48.010;11.326;2023-09-07T02:08:43;7.95;;;6.25;;
21297;SDS011;10808;48.010;11.326;2023-09-07T02:11:09;6.60;;;5.90;;
21297;SDS011;10808;48.010;11.326;2023-09-07T02:13:36;8.60;;;5.53;;
21297;SDS011;10808;48.010;11.326;2023-09-07T02:16:05;6.60;;;5.97;;
21297;SDS011;10808;48.010;11.326;2023-09-07T02:18:31;7.82;;;5.90;;
21297;SDS011;10808;48.010;11.326;2023-09-07T02:21:04;6.82;;;6.13;;
21297;SDS011;10808;48.010;11.326;2023-09-07T02:23:31;8.15;;;6.40;;
21297;SDS011;10808;48.010;11.326;2023-09-07T02:25:57;8.05;;;5.97;;
21297;SDS011;10808;48.010;11.326;2023-09-07T02:28:24;8.35;;;6.80;;
21297;SDS011;10808;48.010;11.326;2023-09-07T02:30:51;7.05;;;6.35;;
21297;SDS011;10808;48.010;11.326;2023-09-07T02:33:18;7.13;;;6.28;;
21297;SDS011;10808;48.010;11.326;2023-09-07T02:35:44;7.60;;;6.80;;
21297;SDS011;10808;48.010;11.326;2023-09-07T02:38:10;8.43;;;6.60;;
21297;SDS011;10808;48.010;11.326;2023-09-07T02:40:39;8.18;;;6.32;;
21297;SDS011;10808;48.010;11.326;2023-09-07T02:43:16;8.98;;;6.60;;
21297;SDS011;10808;48.010;11.326;2023-09-07T02:45:42;6.95;;;6.13;;
21297;SDS011;10808;48.010;11.326;2023-09-07T02:48:08;8.60;;;6.85;;
21297;SDS011;10808;48.010;11.326;2023-09-07T02:50:34;7.93;;;6.38;;
21297;SDS011;10808;48.010;11.326;2023-09-07T02:53:01;8.50;;;6.63;;
21297;SDS011;10808;48.010;11.326;2023-09-07T02:55:28;7.38;;;6.57;;
21297;SDS011;10808;48.010;11.326;2023-09-07T02:57:55;8.27;;;6.50;;
21297;SDS011;10808;48.010;11.326;2023-09-07T03:00:22;7.45;;;6.60;;
21297;SDS011;10808;48.010;11.326;2023-09-07T03:02:48;8.23;;;6.70;;
21297;SDS011;10808;48.010;11.326;2023-09-07T03:05:15;8.88;;;6.30;;
21297;SDS011;10808;48.010;11.326;2023-09-07T03:07:41;7.47;;;6.68;;
21297;SDS011;10808;48.010;11.326;2023-09-07T03:10:10;8.88;;;6.85;;
21297;SDS011;10808;48.010;11.326;2023-09-07T03:12:36;8.50;;;6.32;;
21297;SDS011;10808;48.010;11.326;2023-09-07T03:15:02;8.05;;;6.50;;
21297;SDS011;10808;48.010;11.326;2023-09-07T03:17:29;8.63;;;6.70;;
21297;SDS011;10808;48.010;11.326;2023-09-07T03:19:55;9.43;;;6.50;;
21297;SDS011;10808;48.010;11.326;2023-09-07T03:22:24;7.15;;;6.05;;
21297;SDS011;10808;48.010;11.326;2023-09-07T03:24:54;7.90;;;6.03;;
21297;SDS011;10808;48.010;11.326;2023-09-07T03:27:20;7.90;;;6.50;;
21297;SDS011;10808;48.010;11.326;2023-09-07T03:29:46;8.60;;;5.97;;
21297;SDS011;10808;48.010;11.326;2023-09-07T03:32:17;8.02;;;6.43;;
21297;SDS011;10808;48.010;11.326;2023-09-07T03:34:43;9.95;;;6.53;;
21297;SDS011;10808;48.010;11.326;2023-09-07T03:37:09;7.40;;;6.18;;
21297;SDS011;10808;48.010;11.326;2023-09-07T03:39:37;7.33;;;5.93;;
21297;SDS011;10808;48.010;11.326;2023-09-07T03:42:03;8.50;;;6.18;;
21297;SDS011;10808;48.010;11.326;2023-09-07T03:44:29;7.32;;;6.28;;
21297;SDS011;10808;48.010;11.326;2023-09-07T03:46:55;10.00;;;6.30;;
21297;SDS011;10808;48.010;11.326;2023-09-07T03:49:21;7.40;;;6.20;;
21297;SDS011;10808;48.010;11.326;2023-09-07T03:51:47;7.75;;;6.40;;
21297;SDS011;10808;48.010;11.326;2023-09-07T03:54:13;11.65;;;6.22;;
21297;SDS011;10808;48.010;11.326;2023-09-07T03:56:39;7.53;;;6.07;;
21297;SDS011;10808;48.010;11.326;2023-09-07T03:59:05;8.15;;;6.22;;
21297;SDS011;10808;48.010;11.326;2023-09-07T04:01:31;9.23;;;6.38;;
21297;SDS011;10808;48.010;11.326;2023-09-07T04:03:57;8.50;;;6.70;;
21297;SDS011;10808;48.010;11.326;2023-09-07T04:06:23;7.45;;;6.07;;
21297;SDS011;10808;48.010;11.326;2023-09-07T04:08:49;7.45;;;6.28;;
21297;SDS011;10808;48.010;11.326;2023-09-07T04:11:15;7.07;;;6.30;;
21297;SDS011;10808;48.010;11.326;2023-09-07T04:13:41;7.45;;;6.22;;
21297;SDS011;10808;48.010;11.326;2023-09-07T04:16:08;6.90;;;6.10;;
21297;SDS011;10808;48.010;11.326;2023-09-07T04:18:35;7.15;;;6.15;;
21297;SDS011;10808;48.010;11.326;2023-09-07T04:21:04;7.13;;;6.43;;
21297;SDS011;10808;48.010;11.326;2023-09-07T04:23:31;7.30;;;6.55;;
21297;SDS011;10808;48.010;11.326;2023-09-07T04:26:03;9.13;;;7.18;;
21297;SDS011;10808;48.010;11.326;2023-09-07T04:28:32;11.27;;;7.78;;
21297;SDS011;10808;48.010;11.326;2023-09-07T04:30:58;12.13;;;7.50;;
21297;SDS011;10808;48.010;11.326;2023-09-07T04:33:24;8.38;;;7.20;;
21297;SDS011;10808;48.010;11.326;2023-09-07T04:35:50;8.13;;;6.50;;
21297;SDS011;10808;48.010;11.326;2023-09-07T04:38:16;7.20;;;6.23;;
21297;SDS011;10808;48.010;11.326;2023-09-07T04:40:42;8.20;;;5.80;;
21297;SDS011;10808;48.010;11.326;2023-09-07T04:43:08;7.07;;;6.30;;
21297;SDS011;10808;48.010;11.326;2023-09-07T04:45:34;7.65;;;6.32;;
21297;SDS011;10808;48.010;11.326;2023-09-07T04:48:00;8.85;;;6.32;;
21297;SDS011;10808;48.010;11.326;2023-09-07T04:50:26;9.10;;;6.80;;
21297;SDS011;10808;48.010;11.326;2023-09-07T04:52:52;10.15;;;6.70;;
21297;SDS011;10808;48.010;11.326;2023-09-07T04:55:18;8.65;;;6.80;;
21297;SDS011;10808;48.010;11.326;2023-09-07T04:57:44;8.52;;;6.60;;
21297;SDS011;10808;48.010;11.326;2023-09-07T05:00:10;9.27;;;6.70;;
21297;SDS011;10808;48.010;11.326;2023-09-07T05:02:37;8.75;;;6.40;;
21297;SDS011;10808;48.010;11.326;2023-09-07T05:05:07;7.70;;;6.43;;
21297;SDS011;10808;48.010;11.326;2023-09-07T05:07:33;7.22;;;6.53;;
21297;SDS011;10808;48.010;11.326;2023-09-07T05:09:59;7.38;;;6.05;;
21297;SDS011;10808;48.010;11.326;2023-09-07T05:12:25;8.13;;;6.75;;
21297;SDS011;10808;48.010;11.326;2023-09-07T05:14:51;7.60;;;6.32;;
21297;SDS011;10808;48.010;11.326;2023-09-07T05:17:18;8.40;;;6.40;;
21297;SDS011;10808;48.010;11.326;2023-09-07T05:19:44;8.25;;;6.57;;
21297;SDS011;10808;48.010;11.326;2023-09-07T05:22:10;9.18;;;6.47;;
21297;SDS011;10808;48.010;11.326;2023-09-07T05:24:39;8.82;;;6.40;;
21297;SDS011;10808;48.010;11.326;2023-09-07T05:27:06;8.65;;;6.80;;
21297;SDS011;10808;48.010;11.326;2023-09-07T05:29:32;7.38;;;6.25;;
21297;SDS011;10808;48.010;11.326;2023-09-07T05:31:58;7.50;;;6.20;;
21297;SDS011;10808;48.010;11.326;2023-09-07T05:34:24;8.68;;;6.32;;
21297;SDS011;10808;48.010;11.326;2023-09-07T05:36:50;7.65;;;6.50;;
21297;SDS011;10808;48.010;11.326;2023-09-07T05:39:16;6.97;;;6.28;;
21297;SDS011;10808;48.010;11.326;2023-09-07T05:41:42;7.32;;;6.38;;
21297;SDS011;10808;48.010;11.326;2023-09-07T05:44:08;10.02;;;7.10;;
21297;SDS011;10808;48.010;11.326;2023-09-07T05:46:34;9.02;;;7.40;;
21297;SDS011;10808;48.010;11.326;2023-09-07T05:49:00;9.57;;;7.60;;
21297;SDS011;10808;48.010;11.326;2023-09-07T05:51:26;11.00;;;7.10;;
21297;SDS011;10808;48.010;11.326;2023-09-07T05:53:54;9.18;;;6.97;;
21297;SDS011;10808;48.010;11.326;2023-09-07T05:56:22;8.45;;;6.78;;
21297;SDS011;10808;48.010;11.326;2023-09-07T05:58:49;11.60;;;7.68;;
21297;SDS011;10808;48.010;11.326;2023-09-07T06:01:15;8.00;;;7.20;;
21297;SDS011;10808;48.010;11.326;2023-09-07T06:03:41;10.30;;;7.80;;
21297;SDS011;10808;48.010;11.326;2023-09-07T06:06:07;11.18;;;9.23;;
21297;SDS011;10808;48.010;11.326;2023-09-07T06:08:33;9.35;;;8.35;;
21297;SDS011;10808;48.010;11.326;2023-09-07T06:10:59;10.50;;;8.13;;
21297;SDS011;10808;48.010;11.326;2023-09-07T06:13:26;12.60;;;8.85;;
21297;SDS011;10808;48.010;11.326;2023-09-07T06:15:52;9.85;;;8.85;;
21297;SDS011;10808;48.010;11.326;2023-09-07T06:18:18;10.52;;;8.90;;
21297;SDS011;10808;48.010;11.326;2023-09-07T06:20:44;10.07;;;8.50;;
21297;SDS011;10808;48.010;11.326;2023-09-07T06:23:10;10.23;;;9.13;;
21297;SDS011;10808;48.010;11.326;2023-09-07T06:25:36;12.10;;;9.70;;
21297;SDS011;10808;48.010;11.326;2023-09-07T06:28:02;10.85;;;9.32;;
21297;SDS011;10808;48.010;11.326;2023-09-07T06:30:30;11.85;;;9.65;;
21297;SDS011;10808;48.010;11.326;2023-09-07T06:32:56;10.52;;;9.18;;
21297;SDS011;10808;48.010;11.326;2023-09-07T06:35:22;12.05;;;9.63;;
21297;SDS011;10808;48.010;11.326;2023-09-07T06:37:48;11.50;;;9.40;;
21297;SDS011;10808;48.010;11.326;2023-09-07T06:40:14;10.23;;;9.23;;
21297;SDS011;10808;48.010;11.326;2023-09-07T06:42:43;11.20;;;8.77;;
21297;SDS011;10808;48.010;11.326;2023-09-07T06:45:09;11.82;;;8.95;;
21297;SDS011;10808;48.010;11.326;2023-09-07T06:47:35;11.02;;;8.50;;
21297;SDS011;10808;48.010;11.326;2023-09-07T06:50:02;11.45;;;7.90;;
21297;SDS011;10808;48.010;11.326;2023-09-07T06:52:28;9.75;;;7.88;;
21297;SDS011;10808;48.010;11.326;2023-09-07T06:54:54;9.70;;;7.75;;
21297;SDS011;10808;48.010;11.326;2023-09-07T06:57:20;8.50;;;7.43;;
21297;SDS011;10808;48.010;11.326;2023-09-07T06:59:47;9.23;;;8.23;;
21297;SDS011;10808;48.010;11.326;2023-09-07T07:02:14;8.90;;;8.00;;
21297;SDS011;10808;48.010;11.326;2023-09-07T07:04:40;9.60;;;8.00;;
21297;SDS011;10808;48.010;11.326;2023-09-07T07:07:06;11.20;;;7.60;;
21297;SDS011;10808;48.010;11.326;2023-09-07T07:09:32;10.63;;;7.50;;
21297;SDS011;10808;48.010;11.326;2023-09-07T07:11:59;8.68;;;7.65;;
21297;SDS011;10808;48.010;11.326;2023-09-07T07:14:26;9.80;;;7.75;;
21297;SDS011;10808;48.010;11.326;2023-09-07T07:16:52;9.00;;;7.60;;
21297;SDS011;10808;48.010;11.326;2023-09-07T07:19:20;8.00;;;6.53;;
21297;SDS011;10808;48.010;11.326;2023-09-07T07:21:48;9.48;;;6.95;;
21297;SDS011;10808;48.010;11.326;2023-09-07T07:24:14;8.23;;;6.82;;
21297;SDS011;10808;48.010;11.326;2023-09-07T07:26:40;9.15;;;7.13;;
21297;SDS011;10808;48.010;11.326;2023-09-07T07:29:06;8.87;;;6.30;;
21297;SDS011;10808;48.010;11.326;2023-09-07T07:31:32;9.30;;;7.32;;
21297;SDS011;10808;48.010;11.326;2023-09-07T07:33:58;8.75;;;6.88;;
21297;SDS011;10808;48.010;11.326;2023-09-07T07:36:24;8.18;;;7.18;;
21297;SDS011;10808;48.010;11.326;2023-09-07T07:38:50;8.75;;;7.20;;
21297;SDS011;10808;48.010;11.326;2023-09-07T07:41:16;7.57;;;6.88;;
21297;SDS011;10808;48.010;11.326;2023-09-07T07:43:42;7.78;;;6.50;;
21297;SDS011;10808;48.010;11.326;2023-09-07T07:46:08;8.07;;;6.95;;
21297;SDS011;10808;48.010;11.326;2023-09-07T07:48:34;8.52;;;7.00;;
21297;SDS011;10808;48.010;11.326;2023-09-07T07:51:03;10.52;;;7.35;;
21297;SDS011;10808;48.010;11.326;2023-09-07T07:53:30;8.07;;;7.27;;
21297;SDS011;10808;48.010;11.326;2023-09-07T07:55:57;8.23;;;6.90;;
21297;SDS011;10808;48.010;11.326;2023-09-07T07:58:23;8.05;;;7.05;;
21297;SDS011;10808;48.010;11.326;2023-09-07T08:00:49;8.38;;;7.45;;
21297;SDS011;10808;48.010;11.326;2023-09-07T08:03:16;8.25;;;7.05;;
21297;SDS011;10808;48.010;11.326;2023-09-07T08:05:42;8.23;;;6.93;;
21297;SDS011;10808;48.010;11.326;2023-09-07T08:08:08;8.27;;;6.72;;
21297;SDS011;10808;48.010;11.326;2023-09-07T08:10:35;7.57;;;6.57;;
21297;SDS011;10808;48.010;11.326;2023-09-07T08:13:03;7.50;;;6.70;;
21297;SDS011;10808;48.010;11.326;2023-09-07T08:15:29;7.18;;;6.43;;
21297;SDS011;10808;48.010;11.326;2023-09-07T08:18:00;7.93;;;6.38;;
21297;SDS011;10808;48.010;11.326;2023-09-07T08:20:26;7.43;;;6.30;;
21297;SDS011;10808;48.010;11.326;2023-09-07T08:22:52;8.18;;;6.30;;
21297;SDS011;10808;48.010;11.326;2023-09-07T08:25:18;7.80;;;7.00;;
21297;SDS011;10808;48.010;11.326;2023-09-07T08:27:46;7.68;;;6.88;;
21297;SDS011;10808;48.010;11.326;2023-09-07T08:30:13;7.82;;;6.88;;
21297;SDS011;10808;48.010;11.326;2023-09-07T08:32:44;8.65;;;6.95;;
21297;SDS011;10808;48.010;11.326;2023-09-07T08:35:16;8.95;;;6.57;;
21297;SDS011;10808;48.010;11.326;2023-09-07T08:37:43;6.97;;;6.27;;
21297;SDS011;10808;48.010;11.326;2023-09-07T08:40:09;7.22;;;6.10;;
21297;SDS011;10808;48.010;11.326;2023-09-07T08:42:36;6.60;;;5.85;;
21297;SDS011;10808;48.010;11.326;2023-09-07T08:45:03;7.00;;;6.30;;
21297;SDS011;10808;48.010;11.326;2023-09-07T08:47:35;6.95;;;6.07;;
21297;SDS011;10808;48.010;11.326;2023-09-07T08:50:02;8.43;;;6.20;;
21297;SDS011;10808;48.010;11.326;2023-09-07T08:52:31;8.10;;;6.00;;
21297;SDS011;10808;48.010;11.326;2023-09-07T08:54:59;6.90;;;6.20;;
21297;SDS011;10808;48.010;11.326;2023-09-07T08:57:28;8.80;;;6.28;;
21297;SDS011;10808;48.010;11.326;2023-09-07T08:59:55;9.02;;;6.28;;
21297;SDS011;10808;48.010;11.326;2023-09-07T09:02:21;6.47;;;5.82;;
21297;SDS011;10808;48.010;11.326;2023-09-07T09:04:48;9.50;;;5.93;;
21297;SDS011;10808;48.010;11.326;2023-09-07T09:07:14;6.47;;;5.70;;
21297;SDS011;10808;48.010;11.326;2023-09-07T09:09:40;7.20;;;6.10;;
21297;SDS011;10808;48.010;11.326;2023-09-07T09:12:13;6.82;;;5.85;;
21297;SDS011;10808;48.010;11.326;2023-09-07T09:14:42;6.18;;;5.57;;
21297;SDS011;10808;48.010;11.326;2023-09-07T09:17:12;8.85;;;5.75;;
21297;SDS011;10808;48.010;11.326;2023-09-07T09:19:39;6.38;;;5.55;;
21297;SDS011;10808;48.010;11.326;2023-09-07T09:22:05;6.63;;;5.72;;
21297;SDS011;10808;48.010;11.326;2023-09-07T09:24:32;6.30;;;5.70;;
21297;SDS011;10808;48.010;11.326;2023-09-07T09:26:59;7.05;;;5.80;;
21297;SDS011;10808;48.010;11.326;2023-09-07T09:29:25;6.35;;;5.75;;
21297;SDS011;10808;48.010;11.326;2023-09-07T09:31:52;5.90;;;5.38;;
21297;SDS011;10808;48.010;11.326;2023-09-07T09:34:18;7.72;;;5.90;;
21297;SDS011;10808;48.010;11.326;2023-09-07T09:36:45;7.05;;;5.32;;
21297;SDS011;10808;48.010;11.326;2023-09-07T09:39:21;5.93;;;5.32;;
21297;SDS011;10808;48.010;11.326;2023-09-07T09:41:48;6.00;;;5.40;;
21297;SDS011;10808;48.010;11.326;2023-09-07T09:44:15;6.60;;;5.50;;
21297;SDS011;10808;48.010;11.326;2023-09-07T09:46:42;6.50;;;5.60;;
21297;SDS011;10808;48.010;11.326;2023-09-07T09:49:09;7.20;;;5.63;;
21297;SDS011;10808;48.010;11.326;2023-09-07T09:51:38;6.25;;;5.65;;
21297;SDS011;10808;48.010;11.326;2023-09-07T09:54:06;6.22;;;5.63;;
21297;SDS011;10808;48.010;11.326;2023-09-07T09:56:34;7.03;;;5.75;;
21297;SDS011;10808;48.010;11.326;2023-09-07T09:59:00;6.63;;;5.10;;
21297;SDS011;10808;48.010;11.326;2023-09-07T10:01:26;8.30;;;5.53;;
21297;SDS011;10808;48.010;11.326;2023-09-07T10:03:54;7.25;;;5.72;;
21297;SDS011;10808;48.010;11.326;2023-09-07T10:09:07;6.17;;;5.43;;
21297;SDS011;10808;48.010;11.326;2023-09-07T10:11:39;6.25;;;5.68;;
21297;SDS011;10808;48.010;11.326;2023-09-07T10:14:06;5.82;;;5.22;;
21297;SDS011;10808;48.010;11.326;2023-09-07T10:16:46;5.60;;;5.10;;
21297;SDS011;10808;48.010;11.326;2023-09-07T10:19:21;6.03;;;5.38;;
21297;SDS011;10808;48.010;11.326;2023-09-07T10:21:48;5.50;;;5.00;;
21297;SDS011;10808;48.010;11.326;2023-09-07T10:24:28;6.28;;;5.10;;
21297;SDS011;10808;48.010;11.326;2023-09-07T10:26:56;8.07;;;5.00;;
21297;SDS011;10808;48.010;11.326;2023-09-07T10:29:22;6.13;;;5.05;;
21297;SDS011;10808;48.010;11.326;2023-09-07T10:31:52;6.33;;;5.23;;
21297;SDS011;10808;48.010;11.326;2023-09-07T10:34:18;5.85;;;5.32;;
21297;SDS011;10808;48.010;11.326;2023-09-07T10:36:44;5.60;;;5.10;;
21297;SDS011;10808;48.010;11.326;2023-09-07T10:39:10;6.82;;;5.25;;
21297;SDS011;10808;48.010;11.326;2023-09-07T10:41:41;5.82;;;5.22;;
21297;SDS011;10808;48.010;11.326;2023-09-07T10:44:08;5.75;;;4.97;;
21297;SDS011;10808;48.010;11.326;2023-09-07T10:46:36;6.07;;;5.47;;
21297;SDS011;10808;48.010;11.326;2023-09-07T10:49:03;9.80;;;5.95;;
21297;SDS011;10808;48.010;11.326;2023-09-07T10:51:33;5.85;;;5.35;;
21297;SDS011;10808;48.010;11.326;2023-09-07T10:54:16;6.10;;;5.50;;
21297;SDS011;10808;48.010;11.326;2023-09-07T10:56:44;6.00;;;5.25;;
21297;SDS011;10808;48.010;11.326;2023-09-07T10:59:12;8.50;;;5.75;;
21297;SDS011;10808;48.010;11.326;2023-09-07T11:01:39;6.38;;;5.07;;
21297;SDS011;10808;48.010;11.326;2023-09-07T11:04:05;6.17;;;5.20;;
21297;SDS011;10808;48.010;11.326;2023-09-07T11:06:33;6.30;;;5.30;;
21297;SDS011;10808;48.010;11.326;2023-09-07T11:09:00;5.82;;;5.22;;
21297;SDS011;10808;48.010;11.326;2023-09-07T11:11:33;5.85;;;5.35;;
21297;SDS011;10808;48.010;11.326;2023-09-07T11:13:59;5.93;;;5.30;;
21297;SDS011;10808;48.010;11.326;2023-09-07T11:16:28;6.57;;;5.50;;
21297;SDS011;10808;48.010;11.326;2023-09-07T11:18:54;7.57;;;5.20;;
21297;SDS011;10808;48.010;11.326;2023-09-07T11:21:20;5.75;;;5.05;;
21297;SDS011;10808;48.010;11.326;2023-09-07T11:23:46;6.75;;;5.30;;
21297;SDS011;10808;48.010;11.326;2023-09-07T11:26:13;7.45;;;5.40;;
21297;SDS011;10808;48.010;11.326;2023-09-07T11:28:41;6.70;;;5.35;;
21297;SDS011;10808;48.010;11.326;2023-09-07T11:31:07;5.45;;;4.85;;
21297;SDS011;10808;48.010;11.326;2023-09-07T11:33:33;6.15;;;5.10;;
21297;SDS011;10808;48.010;11.326;2023-09-07T11:36:00;5.75;;;5.10;;
21297;SDS011;10808;48.010;11.326;2023-09-07T11:38:28;5.80;;;5.20;;
21297;SDS011;10808;48.010;11.326;2023-09-07T11:40:56;5.70;;;5.10;;
21297;SDS011;10808;48.010;11.326;2023-09-07T11:43:22;5.63;;;5.03;;
21297;SDS011;10808;48.010;11.326;2023-09-07T11:45:49;5.57;;;5.07;;
21297;SDS011;10808;48.010;11.326;2023-09-07T11:48:15;5.60;;;5.00;;
21297;SDS011;10808;48.010;11.326;2023-09-07T11:50:41;7.28;;;5.15;;
21297;SDS011;10808;48.010;11.326;2023-09-07T11:53:08;5.28;;;4.75;;
21297;SDS011;10808;48.010;11.326;2023-09-07T11:55:34;5.68;;;4.90;;
21297;SDS011;10808;48.010;11.326;2023-09-07T11:58:01;6.50;;;5.07;;
21297;SDS011;10808;48.010;11.326;2023-09-07T12:00:32;5.70;;;5.18;;
21297;SDS011;10808;48.010;11.326;2023-09-07T12:02:59;6.30;;;5.25;;
21297;SDS011;10808;48.010;11.326;2023-09-07T12:05:25;7.40;;;5.50;;
21297;SDS011;10808;48.010;11.326;2023-09-07T12:07:51;5.85;;;5.25;;
21297;SDS011;10808;48.010;11.326;2023-09-07T12:10:17;6.80;;;5.43;;
21297;SDS011;10808;48.010;11.326;2023-09-07T12:12:43;5.28;;;4.78;;
21297;SDS011;10808;48.010;11.326;2023-09-07T12:15:10;8.13;;;4.85;;
21297;SDS011;10808;48.010;11.326;2023-09-07T12:17:39;6.05;;;5.45;;
21297;SDS011;10808;48.010;11.326;2023-09-07T12:20:06;6.03;;;5.20;;
21297;SDS011;10808;48.010;11.326;2023-09-07T12:22:36;5.68;;;5.18;;
21297;SDS011;10808;48.010;11.326;2023-09-07T12:25:03;6.75;;;5.20;;
21297;SDS011;10808;48.010;11.326;2023-09-07T12:27:33;5.37;;;4.87;;
21297;SDS011;10808;48.010;11.326;2023-09-07T12:30:00;5.53;;;5.03;;
21297;SDS011;10808;48.010;11.326;2023-09-07T12:32:31;6.10;;;5.00;;
21297;SDS011;10808;48.010;11.326;2023-09-07T12:34:57;5.20;;;4.70;;
21297;SDS011;10808;48.010;11.326;2023-09-07T12:37:24;6.10;;;4.85;;
21297;SDS011;10808;48.010;11.326;2023-09-07T12:39:50;6.22;;;4.80;;
21297;SDS011;10808;48.010;11.326;2023-09-07T12:42:17;5.82;;;4.40;;
21297;SDS011;10808;48.010;11.326;2023-09-07T12:44:43;5.47;;;4.90;;
21297;SDS011;10808;48.010;11.326;2023-09-07T12:47:10;5.15;;;4.65;;
21297;SDS011;10808;48.010;11.326;2023-09-07T12:49:36;7.65;;;4.88;;
21297;SDS011;10808;48.010;11.326;2023-09-07T12:52:02;5.40;;;4.63;;
21297;SDS011;10808;48.010;11.326;2023-09-07T12:54:36;6.82;;;4.65;;
21297;SDS011;10808;48.010;11.326;2023-09-07T12:57:03;5.10;;;4.60;;
21297;SDS011;10808;48.010;11.326;2023-09-07T12:59:29;5.20;;;4.70;;
21297;SDS011;10808;48.010;11.326;2023-09-07T13:01:55;6.55;;;4.80;;
21297;SDS011;10808;48.010;11.326;2023-09-07T13:04:22;5.78;;;4.72;;
21297;SDS011;10808;48.010;11.326;2023-09-07T13:06:48;5.55;;;4.90;;
21297;SDS011;10808;48.010;11.326;2023-09-07T13:09:14;4.97;;;4.55;;
21297;SDS011;10808;48.010;11.326;2023-09-07T13:11:40;5.88;;;4.85;;
21297;SDS011;10808;48.010;11.326;2023-09-07T13:14:06;5.40;;;4.70;;
21297;SDS011;10808;48.010;11.326;2023-09-07T13:16:33;5.00;;;4.50;;
21297;SDS011;10808;48.010;11.326;2023-09-07T13:19:02;5.80;;;5.07;;
21297;SDS011;10808;48.010;11.326;2023-09-07T13:21:28;5.72;;;4.70;;
21297;SDS011;10808;48.010;11.326;2023-09-07T13:23:54;6.10;;;4.95;;
21297;SDS011;10808;48.010;11.326;2023-09-07T13:26:20;5.32;;;4.72;;
21297;SDS011;10808;48.010;11.326;2023-09-07T13:28:46;5.65;;;5.05;;
21297;SDS011;10808;48.010;11.326;2023-09-07T13:31:12;5.90;;;4.80;;
21297;SDS011;10808;48.010;11.326;2023-09-07T13:33:38;6.35;;;4.70;;
21297;SDS011;10808;48.010;11.326;2023-09-07T13:36:04;5.32;;;4.82;;
21297;SDS011;10808;48.010;11.326;2023-09-07T13:38:30;5.20;;;4.70;;
21297;SDS011;10808;48.010;11.326;2023-09-07T13:40:56;5.32;;;4.82;;
21297;SDS011;10808;48.010;11.326;2023-09-07T13:43:22;5.17;;;4.67;;
21297;SDS011;10808;48.010;11.326;2023-09-07T13:45:48;5.65;;;5.03;;
21297;SDS011;10808;48.010;11.326;2023-09-07T13:48:14;6.40;;;4.78;;
21297;SDS011;10808;48.010;11.326;2023-09-07T13:50:40;5.45;;;4.93;;
21297;SDS011;10808;48.010;11.326;2023-09-07T13:53:06;5.65;;;4.47;;
21297;SDS011;10808;48.010;11.326;2023-09-07T13:55:32;7.70;;;4.60;;
21297;SDS011;10808;48.010;11.326;2023-09-07T13:57:59;5.10;;;4.60;;
21297;SDS011;10808;48.010;11.326;2023-09-07T14:00:25;5.28;;;4.78;;
21297;SDS011;10808;48.010;11.326;2023-09-07T14:02:51;6.53;;;4.60;;
21297;SDS011;10808;48.010;11.326;2023-09-07T14:05:18;6.13;;;5.00;;
21297;SDS011;10808;48.010;11.326;2023-09-07T14:07:44;5.30;;;4.75;;
21297;SDS011;10808;48.010;11.326;2023-09-07T14:10:10;5.57;;;4.75;;
21297;SDS011;10808;48.010;11.326;2023-09-07T14:12:36;4.95;;;4.45;;
21297;SDS011;10808;48.010;11.326;2023-09-07T14:15:02;6.73;;;4.70;;
21297;SDS011;10808;48.010;11.326;2023-09-07T14:17:28;4.78;;;4.38;;
21297;SDS011;10808;48.010;11.326;2023-09-07T14:19:54;6.13;;;4.93;;
21297;SDS011;10808;48.010;11.326;2023-09-07T14:22:21;4.80;;;4.40;;
21297;SDS011;10808;48.010;11.326;2023-09-07T14:24:47;4.80;;;4.40;;
21297;SDS011;10808;48.010;11.326;2023-09-07T14:27:13;5.07;;;4.40;;
21297;SDS011;10808;48.010;11.326;2023-09-07T14:29:39;4.93;;;4.43;;
21297;SDS011;10808;48.010;11.326;2023-09-07T14:32:05;6.25;;;4.20;;
21297;SDS011;10808;48.010;11.326;2023-09-07T14:34:31;5.50;;;4.30;;